Time;durP1;ratioP1;P1;durP2;ratioP2;P2;SDS_P1;SDS_P2;PMS_P1;PMS_P2;Temp;Humidity;BMP_temperature;BMP_pressure;BME280_temperature;BME280_humidity;BME280_pressure;Samples;Min_cycle;Max_cycle;Signal;HPM_P1;HPM_P2
2021/12/07 00:01:20;;;;;;;0.00;0.00;;;2.90;99.90;;;;;;5100085;27;20031;-81
2021/12/07 00:03:45;;;;;;;1.42;0.55;;;2.90;99.90;;;;;;5117669;27;20047;-81
2021/12/07 00:06:11;;;;;;;0.45;0.38;;;2.90;99.90;;;;;;5117232;27;20065;-81
2021/12/07 00:08:39;;;;;;;0.00;0.00;;;2.90;99.90;;;;;;5099752;27;20155;-81
2021/12/07 00:11:05;;;;;;;0.20;0.10;;;2.80;99.90;;;;;;5099710;28;20043;-81
2021/12/07 00:13:35;;;;;;;1.48;1.08;;;2.70;99.90;;;;;;5117239;27;20043;-82
2021/12/07 00:16:02;;;;;;;0.00;0.00;;;2.70;99.90;;;;;;5100589;27;20051;-82
2021/12/07 00:18:27;;;;;;;0.68;0.30;;;2.70;99.90;;;;;;5100553;27;20047;-82
2021/12/07 00:20:53;;;;;;;0.03;0.03;;;2.70;99.90;;;;;;5117603;27;20448;-82
2021/12/07 00:23:19;;;;;;;0.17;0.17;;;2.60;99.90;;;;;;5099770;28;20047;-83
2021/12/07 00:25:45;;;;;;;0.00;0.00;;;2.60;99.90;;;;;;5099772;27;20050;-83
2021/12/07 00:28:10;;;;;;;0.85;0.28;;;2.50;99.90;;;;;;5099064;28;20513;-83
2021/12/07 00:30:37;;;;;;;0.47;0.10;;;2.50;99.90;;;;;;5117692;28;20043;-82
2021/12/07 00:35:37;;;;;;;0.40;0.40;;;2.30;99.90;;;;;;5118060;28;20390;-83
2021/12/07 00:38:10;;;;;;;0.55;0.55;;;2.20;99.90;;;;;;5117023;28;20390;-83
2021/12/07 00:40:37;;;;;;;0.20;0.20;;;2.10;99.90;;;;;;5117292;28;20130;-82
2021/12/07 00:43:03;;;;;;;1.23;0.73;;;2.10;99.90;;;;;;5117500;28;20136;-82
2021/12/07 00:45:32;;;;;;;0.20;0.20;;;2.10;99.90;;;;;;5116799;28;20058;-82
2021/12/07 00:47:58;;;;;;;1.33;0.15;;;2.10;99.90;;;;;;5099969;28;20054;-81
2021/12/07 00:50:25;;;;;;;0.00;0.00;;;2.00;99.90;;;;;;5116639;28;20398;-81
2021/12/07 00:52:52;;;;;;;0.00;0.00;;;2.10;99.90;;;;;;5099551;28;20046;-80
2021/12/07 00:55:24;;;;;;;0.30;0.30;;;2.00;99.90;;;;;;5099170;28;20054;-81
2021/12/07 00:57:53;;;;;;;0.10;0.08;;;2.00;99.90;;;;;;5117086;28;20475;-80
2021/12/07 01:00:19;;;;;;;0.00;0.00;;;1.90;99.90;;;;;;5116482;28;20053;-79
2021/12/07 01:02:45;;;;;;;0.22;0.20;;;1.90;99.90;;;;;;5116216;28;20083;-79
2021/12/07 01:05:19;;;;;;;0.10;0.10;;;1.90;99.90;;;;;;5099949;28;20082;-79
2021/12/07 01:26:38;;;;;;;0.65;0.50;;;1.90;99.90;;;;;;5117397;27;20513;-77
2021/12/07 01:29:04;;;;;;;0.00;0.00;;;1.80;99.90;;;;;;5102405;27;20199;-77
2021/12/07 01:31:46;;;;;;;0.00;0.00;;;1.80;99.90;;;;;;5119365;27;20056;-77
2021/12/07 01:57:53;;;;;;;1.08;1.08;;;1.70;99.90;;;;;;5120429;27;20139;-77
2021/12/07 02:00:23;;;;;;;0.00;0.00;;;1.60;99.90;;;;;;5120360;27;20420;-76
2021/12/07 02:02:49;;;;;;;0.38;0.22;;;1.60;99.90;;;;;;5102297;27;20050;-76
2021/12/07 02:05:15;;;;;;;0.90;0.45;;;1.60;99.90;;;;;;5119886;27;20047;-77
2021/12/07 02:07:41;;;;;;;6.00;0.20;;;1.60;99.90;;;;;;5119414;27;20039;-77
2021/12/07 02:10:14;;;;;;;0.80;0.20;;;1.60;99.90;;;;;;5119559;27;20053;-77
2021/12/07 02:12:45;;;;;;;0.00;0.00;;;1.60;99.90;;;;;;5102873;27;20043;-77
2021/12/07 02:15:17;;;;;;;0.98;0.05;;;1.60;99.90;;;;;;5119695;27;20054;-76
2021/12/07 02:17:43;;;;;;;0.15;0.15;;;1.60;99.90;;;;;;5102292;27;20382;-77
2021/12/07 02:20:11;;;;;;;0.00;0.00;;;1.60;99.90;;;;;;5101582;27;20128;-77
2021/12/07 02:22:36;;;;;;;0.00;0.00;;;1.60;99.90;;;;;;5118848;27;20126;-77
2021/12/07 02:25:07;;;;;;;0.30;0.22;;;1.70;99.90;;;;;;5118901;27;20532;-77
2021/12/07 02:27:33;;;;;;;1.17;0.65;;;1.70;99.90;;;;;;5101727;27;20499;-77
2021/12/07 02:29:59;;;;;;;0.00;0.00;;;1.70;99.90;;;;;;5118635;27;20046;-77
2021/12/07 02:32:25;;;;;;;0.00;0.00;;;1.70;99.90;;;;;;5118056;27;20066;-77
2021/12/07 02:34:57;;;;;;;1.98;0.75;;;1.70;99.90;;;;;;5118536;27;20051;-78
2021/12/07 02:37:29;;;;;;;0.15;0.15;;;1.70;99.90;;;;;;5118620;27;20047;-78
2021/12/07 02:39:56;;;;;;;0.10;0.10;;;1.70;99.90;;;;;;5100665;27;20599;-78
2021/12/07 02:42:23;;;;;;;0.08;0.08;;;1.70;99.90;;;;;;5118548;27;20039;-78
2021/12/07 02:44:49;;;;;;;0.40;0.13;;;1.70;99.90;;;;;;5101457;27;20094;-78
2021/12/07 02:47:15;;;;;;;0.20;0.20;;;1.80;99.90;;;;;;5118534;27;20070;-78
2021/12/07 02:49:41;;;;;;;0.08;0.08;;;1.70;99.90;;;;;;5101764;27;20455;-78
2021/12/07 02:52:07;;;;;;;0.93;0.28;;;1.80;99.90;;;;;;5118178;27;20040;-78
2021/12/07 02:54:35;;;;;;;0.40;0.15;;;1.80;99.90;;;;;;5100835;27;20143;-78
2021/12/07 02:57:02;;;;;;;0.30;0.30;;;1.80;99.90;;;;;;5118547;27;20082;-78
2021/12/07 02:59:28;;;;;;;0.00;0.00;;;1.80;99.90;;;;;;5100902;27;20142;-78
2021/12/07 03:01:57;;;;;;;0.00;0.00;;;1.80;99.90;;;;;;5101280;27;20479;-78
2021/12/07 03:04:30;;;;;;;0.03;0.03;;;1.80;99.90;;;;;;5118055;27;20374;-78
2021/12/07 03:07:10;;;;;;;0.40;0.40;;;1.80;99.90;;;;;;5117970;27;20043;-78
2021/12/07 03:10:09;;;;;;;1.15;0.22;;;1.80;99.90;;;;;;5101053;27;20137;-77
2021/12/07 03:26:08;;;;;;;0.00;0.00;;;1.90;99.90;;;;;;5117584;27;20771;-78
2021/12/07 03:28:37;;;;;;;0.17;0.15;;;1.90;99.90;;;;;;5117336;27;20130;-78
2021/12/07 03:31:04;;;;;;;0.00;0.00;;;1.90;99.90;;;;;;5100454;27;20196;-78
2021/12/07 03:33:30;;;;;;;0.00;0.00;;;1.90;99.90;;;;;;5100181;27;20065;-78
2021/12/07 03:35:55;;;;;;;0.00;0.00;;;1.90;99.90;;;;;;5099948;27;20047;-78
2021/12/07 03:38:22;;;;;;;0.20;0.20;;;1.90;99.90;;;;;;5117744;27;20125;-79
2021/12/07 03:40:47;;;;;;;0.00;0.00;;;1.90;99.90;;;;;;5100663;27;20039;-78
2021/12/07 03:43:15;;;;;;;0.35;0.25;;;1.90;99.90;;;;;;5117147;27;20050;-79
2021/12/07 03:45:40;;;;;;;0.08;0.08;;;1.90;99.90;;;;;;5117208;27;20050;-78
2021/12/07 03:48:08;;;;;;;0.00;0.00;;;1.90;99.90;;;;;;5099986;27;20067;-78
2021/12/07 03:50:35;;;;;;;0.38;0.25;;;1.90;99.90;;;;;;5116677;27;20091;-78
2021/12/07 03:53:01;;;;;;;0.95;0.65;;;1.90;99.90;;;;;;5100313;27;20051;-78
2021/12/07 03:55:26;;;;;;;0.57;0.40;;;1.80;99.90;;;;;;5117646;27;20043;-78
2021/12/07 03:57:52;;;;;;;0.00;0.00;;;1.80;99.90;;;;;;5099940;27;20063;-78
2021/12/07 04:00:22;;;;;;;0.20;0.20;;;1.80;99.90;;;;;;5100043;27;20043;-78
2021/12/07 04:02:50;;;;;;;0.00;0.00;;;1.80;99.90;;;;;;5117274;27;20130;-78
2021/12/07 04:05:18;;;;;;;0.32;0.32;;;1.80;99.90;;;;;;5100147;27;20465;-78
2021/12/07 04:07:44;;;;;;;0.10;0.10;;;1.80;99.90;;;;;;5117080;27;20039;-78
2021/12/07 04:10:13;;;;;;;0.00;0.00;;;1.80;99.90;;;;;;5117076;27;20051;-78
2021/12/07 04:12:39;;;;;;;0.00;0.00;;;1.70;99.90;;;;;;5100395;27;20133;-78
2021/12/07 04:15:07;;;;;;;0.00;0.00;;;1.70;99.90;;;;;;5099864;27;20402;-78
2021/12/07 04:17:33;;;;;;;0.15;0.15;;;1.70;99.90;;;;;;5116867;27;20043;-78
2021/12/07 04:19:59;;;;;;;0.00;0.00;;;1.70;99.90;;;;;;5099149;27;20110;-78
2021/12/07 04:22:25;;;;;;;0.00;0.00;;;1.70;99.90;;;;;;5116749;28;20047;-78
2021/12/07 04:24:51;;;;;;;0.25;0.20;;;1.70;99.90;;;;;;5116518;28;20039;-78
2021/12/07 04:27:17;;;;;;;0.00;0.00;;;1.70;99.90;;;;;;5117177;27;20046;-78
2021/12/07 04:29:43;;;;;;;0.00;0.00;;;1.70;99.90;;;;;;5116906;28;20046;-78
2021/12/07 04:32:09;;;;;;;0.00;0.00;;;1.70;99.90;;;;;;5116190;28;20091;-78
2021/12/07 04:34:34;;;;;;;0.00;0.00;;;1.70;99.90;;;;;;5117092;28;20050;-78
2021/12/07 04:37:00;;;;;;;0.00;0.00;;;1.70;99.90;;;;;;5117046;28;20047;-78
2021/12/07 04:39:25;;;;;;;0.10;0.10;;;1.70;99.90;;;;;;5116794;28;20039;-78
2021/12/07 04:41:52;;;;;;;0.55;0.00;;;1.70;99.90;;;;;;5117369;28;20031;-78
2021/12/07 04:44:19;;;;;;;0.10;0.10;;;1.70;99.90;;;;;;5117435;28;20055;-78
2021/12/07 04:47:02;;;;;;;0.08;0.08;;;1.70;99.90;;;;;;5116659;28;20082;-78
2021/12/07 04:50:07;;;;;;;0.00;0.00;;;1.70;99.90;;;;;;5116869;28;20051;-78
2021/12/07 04:57:45;;;;;;;0.30;0.30;;;1.70;99.90;;;;;;5116273;28;20039;-78
2021/12/07 05:00:24;;;;;;;0.03;0.03;;;1.70;99.90;;;;;;5116050;28;20057;-78
2021/12/07 05:02:55;;;;;;;0.00;0.00;;;1.70;99.90;;;;;;5119709;27;20390;-78
2021/12/07 05:05:25;;;;;;;0.10;0.10;;;1.70;99.90;;;;;;5104080;27;20047;-78
2021/12/07 05:07:54;;;;;;;0.10;0.10;;;1.70;99.90;;;;;;5120689;27;20114;-78
2021/12/07 05:10:27;;;;;;;0.00;0.00;;;1.70;99.90;;;;;;5120511;27;20089;-78
2021/12/07 05:13:20;;;;;;;0.10;0.10;;;1.70;99.90;;;;;;5120041;27;20053;-78
2021/12/07 05:23:55;;;;;;;;;;;1.70;99.90;;;;;;5121104;27;20470;-78
2021/12/07 05:39:59;;;;;;;3.42;0.32;;;1.70;99.90;;;;;;5119642;27;20055;-78
2021/12/07 05:42:25;;;;;;;0.00;0.00;;;1.70;99.90;;;;;;5119671;27;20043;-78
2021/12/07 05:44:55;;;;;;;0.00;0.00;;;1.70;99.90;;;;;;5102853;27;20078;-78
2021/12/07 05:47:21;;;;;;;0.00;0.00;;;1.70;99.90;;;;;;5102821;27;20092;-78
2021/12/07 05:49:47;;;;;;;0.10;0.10;;;1.80;99.90;;;;;;5119616;27;20043;-78
2021/12/07 05:52:13;;;;;;;0.10;0.10;;;1.80;99.90;;;;;;5102691;27;20054;-78
2021/12/07 05:54:38;;;;;;;0.00;0.00;;;1.70;99.90;;;;;;5120059;27;20091;-78
2021/12/07 05:57:05;;;;;;;0.32;0.20;;;1.80;99.90;;;;;;5119224;27;20084;-79
2021/12/07 05:59:32;;;;;;;0.00;0.00;;;1.80;99.90;;;;;;5102369;27;20054;-79
2021/12/07 06:01:58;;;;;;;0.00;0.00;;;1.70;99.90;;;;;;5102167;27;20043;-79
2021/12/07 06:04:23;;;;;;;0.28;0.28;;;1.80;99.90;;;;;;5119265;27;20398;-79
2021/12/07 06:06:49;;;;;;;0.10;0.08;;;1.70;99.90;;;;;;5118914;27;20058;-79
2021/12/07 06:09:15;;;;;;;0.00;0.00;;;1.70;99.90;;;;;;5118793;27;20035;-79
2021/12/07 06:11:42;;;;;;;0.15;0.15;;;1.70;99.90;;;;;;5118972;27;20530;-79
2021/12/07 06:14:11;;;;;;;0.00;0.00;;;1.80;99.90;;;;;;5101445;27;20051;-79
2021/12/07 06:16:37;;;;;;;0.00;0.00;;;1.70;99.90;;;;;;5119760;27;20440;-79
2021/12/07 06:19:02;;;;;;;0.43;0.43;;;1.70;99.90;;;;;;5119284;27;20083;-79
2021/12/07 06:21:29;;;;;;;0.40;0.40;;;1.80;99.90;;;;;;5102386;27;20111;-79
2021/12/07 06:23:55;;;;;;;0.00;0.00;;;1.70;99.90;;;;;;5102235;27;20554;-79
2021/12/07 06:26:21;;;;;;;0.00;0.00;;;1.70;99.90;;;;;;5102288;27;20043;-79
2021/12/07 06:28:47;;;;;;;0.00;0.00;;;1.70;99.90;;;;;;5102232;27;20043;-78
2021/12/07 06:31:12;;;;;;;0.00;0.00;;;1.70;99.90;;;;;;5118967;27;20497;-78
2021/12/07 06:33:39;;;;;;;0.75;0.52;;;1.70;99.90;;;;;;5118788;27;20070;-79
2021/12/07 06:36:07;;;;;;;0.80;0.80;;;1.70;99.90;;;;;;5118708;27;20143;-79
2021/12/07 06:38:34;;;;;;;1.05;0.55;;;1.70;99.90;;;;;;5118621;27;20043;-79
2021/12/07 06:41:02;;;;;;;0.00;0.00;;;1.70;99.90;;;;;;5101220;27;20075;-79
2021/12/07 06:43:28;;;;;;;0.20;0.20;;;1.70;99.90;;;;;;5118186;27;20448;-79
2021/12/07 06:45:54;;;;;;;0.00;0.00;;;1.70;99.90;;;;;;5118382;27;20047;-79
2021/12/07 06:48:20;;;;;;;0.03;0.00;;;1.60;99.90;;;;;;5118170;27;20039;-80
2021/12/07 06:50:46;;;;;;;0.20;0.20;;;1.70;99.90;;;;;;5101024;27;20058;-79
2021/12/07 06:53:12;;;;;;;0.00;0.00;;;1.70;99.90;;;;;;5118787;27;20050;-79
2021/12/07 06:55:37;;;;;;;0.00;0.00;;;1.70;99.90;;;;;;5117884;27;20054;-79
2021/12/07 06:58:04;;;;;;;0.25;0.25;;;1.70;99.90;;;;;;5132746;27;20402;-79
2021/12/07 07:00:30;;;;;;;3.33;0.40;;;1.60;99.90;;;;;;5152996;27;20077;-79
2021/12/07 07:02:56;;;;;;;0.13;0.10;;;1.60;99.90;;;;;;5100765;27;20247;-79
2021/12/07 07:05:21;;;;;;;0.00;0.00;;;1.60;99.90;;;;;;5135447;27;20088;-79
2021/12/07 07:07:48;;;;;;;2.67;0.98;;;1.60;99.90;;;;;;5134584;27;20050;-79
2021/12/07 07:10:16;;;;;;;0.10;0.10;;;1.60;99.90;;;;;;5117828;27;20107;-79
2021/12/07 07:12:43;;;;;;;0.00;0.00;;;1.60;99.90;;;;;;5101404;27;20143;-79
2021/12/07 07:15:09;;;;;;;0.00;0.00;;;1.60;99.90;;;;;;5117763;27;20057;-79
2021/12/07 07:17:35;;;;;;;0.43;0.20;;;1.60;99.90;;;;;;5117928;27;20043;-80
2021/12/07 07:20:03;;;;;;;0.30;0.28;;;1.70;99.90;;;;;;5100965;27;20393;-79
2021/12/07 07:22:29;;;;;;;0.22;0.22;;;1.60;99.90;;;;;;5117979;27;20135;-79
2021/12/07 07:24:55;;;;;;;0.82;0.15;;;1.60;99.90;;;;;;5100609;27;20142;-78
2021/12/07 07:27:21;;;;;;;0.00;0.00;;;1.60;99.90;;;;;;5117970;27;20039;-78
2021/12/07 07:29:46;;;;;;;0.05;0.03;;;1.60;99.90;;;;;;5101016;27;20062;-78
2021/12/07 07:32:12;;;;;;;0.00;0.00;;;1.70;99.90;;;;;;5152193;27;20057;-78
2021/12/07 07:34:38;;;;;;;0.00;0.00;;;1.70;99.90;;;;;;5152471;27;20058;-78
2021/12/07 07:37:05;;;;;;;3.15;0.15;;;1.70;99.90;;;;;;5118061;27;20039;-78
2021/12/07 07:39:31;;;;;;;0.00;0.00;;;1.70;99.90;;;;;;5100839;27;20049;-78
2021/12/07 07:41:56;;;;;;;0.00;0.00;;;1.80;99.90;;;;;;5117567;27;20039;-79
2021/12/07 07:44:22;;;;;;;0.05;0.00;;;1.80;99.90;;;;;;5117173;27;20039;-78
2021/12/07 07:46:48;;;;;;;1.20;0.28;;;1.80;99.90;;;;;;5134359;27;20043;-78
2021/12/07 07:49:14;;;;;;;0.00;0.00;;;1.90;99.90;;;;;;5144553;27;20051;-81
2021/12/07 07:51:40;;;;;;;0.43;0.00;;;1.90;99.90;;;;;;5115758;27;20389;-81
2021/12/07 07:54:06;;;;;;;0.80;0.57;;;1.90;99.90;;;;;;5099012;27;20046;-82
2021/12/07 07:56:33;;;;;;;0.65;0.38;;;2.00;99.90;;;;;;5115914;27;20490;-81
2021/12/07 07:58:59;;;;;;;0.00;0.00;;;2.00;99.90;;;;;;5115905;27;20482;-82
2021/12/07 08:01:28;;;;;;;0.17;0.17;;;2.00;99.90;;;;;;5115507;27;20521;-79
2021/12/07 08:03:54;;;;;;;0.10;0.10;;;2.00;99.90;;;;;;5115637;27;20490;-80
2021/12/07 08:06:20;;;;;;;0.00;0.00;;;2.00;99.90;;;;;;5115371;27;20088;-83
2021/12/07 08:08:46;;;;;;;0.00;0.00;;;2.00;99.90;;;;;;5098208;27;20050;-82
2021/12/07 08:11:13;;;;;;;0.65;0.43;;;2.00;99.90;;;;;;5114837;27;20494;-82
2021/12/07 08:13:42;;;;;;;0.00;0.00;;;2.00;99.90;;;;;;5115480;27;20043;-83
2021/12/07 08:16:15;;;;;;;0.00;0.00;;;2.00;99.90;;;;;;5098601;27;20050;-81
2021/12/07 08:18:45;;;;;;;0.00;0.00;;;2.10;99.90;;;;;;5115978;27;20050;-83
2021/12/07 08:21:13;;;;;;;0.00;0.00;;;2.20;99.90;;;;;;5098541;27;20383;-82
2021/12/07 08:23:39;;;;;;;0.00;0.00;;;2.20;99.90;;;;;;5116067;28;20043;-82
2021/12/07 08:26:08;;;;;;;0.00;0.00;;;2.20;99.90;;;;;;5098988;28;20762;-82
2021/12/07 08:28:34;;;;;;;0.75;0.75;;;2.20;99.90;;;;;;5115691;28;20062;-80
2021/12/07 08:30:59;;;;;;;0.00;0.00;;;2.30;99.90;;;;;;5099693;28;20043;-79
2021/12/07 08:33:25;;;;;;;0.20;0.20;;;2.40;99.90;;;;;;5116254;28;20058;-80
2021/12/07 08:35:52;;;;;;;0.10;0.10;;;2.40;99.90;;;;;;5098916;28;20394;-79
2021/12/07 08:38:18;;;;;;;0.20;0.20;;;2.50;99.90;;;;;;5099565;28;20439;-79
2021/12/07 08:40:45;;;;;;;8.30;1.08;;;2.60;99.90;;;;;;5116525;28;20044;-79
2021/12/07 08:43:12;;;;;;;0.57;0.40;;;3.00;99.90;;;;;;5116533;28;20051;-79
2021/12/07 08:45:40;;;;;;;0.75;0.15;;;3.80;99.90;;;;;;5116659;28;20051;-79
2021/12/07 08:48:06;;;;;;;0.20;0.20;;;4.60;99.90;;;;;;5099034;28;20137;-79
2021/12/07 08:50:33;;;;;;;1.77;0.20;;;5.20;99.90;;;;;;5099332;28;20130;-79
2021/12/07 08:53:03;;;;;;;0.10;0.10;;;5.70;99.90;;;;;;5116184;28;20048;-79
2021/12/07 09:01:00;;;;;;;0.97;0.33;;;7.20;99.90;;;;;;5116352;28;20055;-79
2021/12/07 09:03:26;;;;;;;0.93;0.22;;;7.60;99.90;;;;;;5097975;28;20510;-80
2021/12/07 09:05:52;;;;;;;0.00;0.00;;;7.70;99.90;;;;;;5098842;28;20051;-80
2021/12/07 09:08:18;;;;;;;0.75;0.40;;;7.80;99.90;;;;;;5116581;28;20614;-82
2021/12/07 09:10:44;;;;;;;0.00;0.00;;;7.90;99.90;;;;;;5099582;28;20390;-82
2021/12/07 09:13:10;;;;;;;0.00;0.00;;;8.00;99.90;;;;;;5099376;28;20138;-82
2021/12/07 09:15:37;;;;;;;0.05;0.00;;;8.20;99.90;;;;;;5117184;28;20078;-82
2021/12/07 09:18:03;;;;;;;0.00;0.00;;;8.50;99.90;;;;;;5099303;28;20043;-82
2021/12/07 09:20:30;;;;;;;0.10;0.10;;;8.90;99.90;;;;;;5098704;28;20043;-82
2021/12/07 09:22:57;;;;;;;0.38;0.22;;;9.20;99.90;;;;;;5099666;28;20043;-81
2021/12/07 09:25:22;;;;;;;0.50;0.00;;;9.50;99.90;;;;;;5114410;28;20043;-84
2021/12/07 09:27:48;;;;;;;0.10;0.10;;;9.80;99.90;;;;;;5098132;28;20058;-84
2021/12/07 09:30:17;;;;;;;0.55;0.20;;;9.90;99.90;;;;;;5098303;28;20041;-82
2021/12/07 09:32:43;;;;;;;0.73;0.38;;;10.00;99.90;;;;;;5097330;28;20055;-83
2021/12/07 09:35:10;;;;;;;0.47;0.35;;;10.10;99.90;;;;;;5113364;28;20058;-82
2021/12/07 09:37:37;;;;;;;0.05;0.05;;;10.20;99.90;;;;;;5114132;28;20130;-82
2021/12/07 09:40:09;;;;;;;0.03;0.03;;;10.20;99.60;;;;;;5096980;28;20051;-83
2021/12/07 09:42:34;;;;;;;0.00;0.00;;;9.80;98.50;;;;;;5114092;28;20134;-83
2021/12/07 09:45:01;;;;;;;0.20;0.20;;;9.60;99.90;;;;;;5114794;28;20458;-82
2021/12/07 09:47:26;;;;;;;0.00;0.00;;;9.50;99.90;;;;;;5114716;28;20050;-83
2021/12/07 09:49:52;;;;;;;0.10;0.10;;;8.70;99.90;;;;;;5099734;27;20125;-83
2021/12/07 09:52:18;;;;;;;0.20;0.20;;;8.00;99.90;;;;;;5100494;27;20103;-86
2021/12/07 09:54:43;;;;;;;0.00;0.00;;;7.40;99.90;;;;;;5117755;27;20043;-83
2021/12/07 09:57:11;;;;;;;0.00;0.00;;;6.70;99.90;;;;;;5100102;27;20054;-82
2021/12/07 09:59:37;;;;;;;0.73;0.73;;;6.50;99.90;;;;;;5117609;27;20054;-82
2021/12/07 10:02:06;;;;;;;1.45;0.32;;;6.70;99.90;;;;;;5116224;27;20043;-83
2021/12/07 10:04:32;;;;;;;8.98;0.88;;;6.80;99.90;;;;;;5117480;27;20466;-81
2021/12/07 10:06:58;;;;;;;0.00;0.00;;;6.90;99.90;;;;;;5117354;27;20075;-80
2021/12/07 10:09:24;;;;;;;0.00;0.00;;;7.20;99.90;;;;;;5100228;27;20447;-80
2021/12/07 10:11:52;;;;;;;0.00;0.00;;;7.00;99.90;;;;;;5117941;27;20055;-79
2021/12/07 10:14:18;;;;;;;0.00;0.00;;;6.60;99.90;;;;;;5119221;27;20054;-79
2021/12/07 10:16:49;;;;;;;0.00;0.00;;;6.10;99.90;;;;;;5119771;27;20078;-79
2021/12/07 10:19:27;;;;;;;0.00;0.00;;;5.80;99.90;;;;;;5102400;27;20043;-79
2021/12/07 10:22:03;;;;;;;2.08;0.75;;;5.40;99.90;;;;;;5102306;27;20390;-79
2021/12/07 10:24:37;;;;;;;0.10;0.10;;;5.20;99.90;;;;;;5119231;27;20058;-79
2021/12/07 10:27:04;;;;;;;0.00;0.00;;;5.00;99.90;;;;;;5101754;27;20059;-78
2021/12/07 10:29:30;;;;;;;0.00;0.00;;;4.90;99.90;;;;;;5101496;27;20071;-79
2021/12/07 10:32:01;;;;;;;0.00;0.00;;;4.80;99.90;;;;;;5119009;27;20080;-80
2021/12/07 10:34:35;;;;;;;0.45;0.32;;;4.70;99.90;;;;;;5119057;27;20055;-79
2021/12/07 10:37:08;;;;;;;0.10;0.10;;;4.90;99.90;;;;;;5101367;27;20383;-77
2021/12/07 10:39:39;;;;;;;0.50;0.00;;;5.40;99.90;;;;;;5102471;27;20176;-80
2021/12/07 10:42:09;;;;;;;1.33;0.60;;;6.10;99.90;;;;;;5101966;27;20486;-80
2021/12/07 10:44:38;;;;;;;0.00;0.00;;;7.00;99.90;;;;;;5118468;27;20042;-79
2021/12/07 10:47:08;;;;;;;0.00;0.00;;;7.70;99.90;;;;;;5099312;27;20051;-79
2021/12/07 10:49:54;;;;;;;0.38;0.35;;;8.40;99.90;;;;;;5102064;27;20059;-79
2021/12/07 10:52:32;;;;;;;5.63;0.30;;;9.10;99.90;;;;;;5117978;27;20087;-79
2021/12/07 10:55:18;;;;;;;0.65;0.50;;;9.50;99.90;;;;;;5100874;27;20078;-79
2021/12/07 10:57:51;;;;;;;0.00;0.00;;;9.80;99.90;;;;;;5116391;27;20080;-79
2021/12/07 11:00:27;;;;;;;0.10;0.10;;;9.80;99.90;;;;;;5117342;27;20038;-78
2021/12/07 11:03:01;;;;;;;2.55;0.47;;;9.20;99.90;;;;;;5118163;27;20096;-79
2021/12/07 11:05:31;;;;;;;0.80;0.00;;;8.90;99.90;;;;;;5118668;27;20046;-79
2021/12/07 11:07:58;;;;;;;0.52;0.38;;;8.80;99.90;;;;;;5118784;27;20047;-79
2021/12/07 11:10:30;;;;;;;0.40;0.38;;;8.80;99.90;;;;;;5101099;27;20054;-79
2021/12/07 11:13:13;;;;;;;0.35;0.22;;;8.90;99.90;;;;;;5118119;27;20555;-78
2021/12/07 11:15:50;;;;;;;0.25;0.25;;;8.90;99.90;;;;;;5101753;27;20153;-78
2021/12/07 11:18:48;;;;;;;0.00;0.00;;;8.80;99.90;;;;;;5100756;27;20458;-78
2021/12/07 11:21:19;;;;;;;0.10;0.10;;;8.60;99.90;;;;;;5036232;28;20178;-78
2021/12/07 11:23:55;;;;;;;0.10;0.10;;;8.10;99.90;;;;;;5037007;28;20049;-78
2021/12/07 11:31:46;;;;;;;0.43;0.43;;;7.40;99.90;;;;;;5052760;28;20052;-78
2021/12/07 11:34:21;;;;;;;0.93;0.10;;;7.20;99.90;;;;;;5035594;28;20135;-78
2021/12/07 11:37:01;;;;;;;0.00;0.00;;;7.10;99.90;;;;;;5020171;28;20060;-78
2021/12/07 11:39:35;;;;;;;0.05;0.05;;;7.00;99.90;;;;;;5035872;28;20064;-78
2021/12/07 11:42:34;;;;;;;0.43;0.43;;;6.90;99.90;;;;;;5035597;28;20539;-78
2021/12/07 11:45:10;;;;;;;0.00;0.00;;;6.80;99.90;;;;;;5035831;28;20566;-78
2021/12/07 11:47:42;;;;;;;0.00;0.00;;;6.80;99.90;;;;;;5020300;28;20064;-78
2021/12/07 11:50:11;;;;;;;0.00;0.00;;;6.80;99.90;;;;;;5036283;28;20167;-78
2021/12/07 11:52:37;;;;;;;0.55;0.52;;;6.90;99.90;;;;;;5019329;28;20056;-78
2021/12/07 11:55:04;;;;;;;0.00;0.00;;;6.90;99.90;;;;;;5036357;28;20568;-79
2021/12/07 11:57:30;;;;;;;0.30;0.30;;;7.00;99.90;;;;;;5074162;27;20066;-79
2021/12/07 11:59:56;;;;;;;0.00;0.00;;;7.30;99.90;;;;;;5117439;27;20035;-78
2021/12/07 12:02:23;;;;;;;0.20;0.20;;;7.40;99.90;;;;;;5134159;27;20042;-79
2021/12/07 12:04:49;;;;;;;0.00;0.00;;;7.50;99.90;;;;;;5117929;27;20050;-79
2021/12/07 12:07:16;;;;;;;0.43;0.30;;;7.60;99.90;;;;;;5117306;27;20485;-79
2021/12/07 12:09:49;;;;;;;6.47;0.13;;;7.70;99.90;;;;;;5101118;27;20086;-79
2021/12/07 12:12:48;;;;;;;0.00;0.00;;;7.90;99.90;;;;;;5117404;27;20047;-78
2021/12/07 12:15:46;;;;;;;0.05;0.05;;;8.10;99.90;;;;;;5151971;27;20107;-79
2021/12/07 12:18:41;;;;;;;0.43;0.43;;;8.10;99.90;;;;;;5117844;27;20381;-79
2021/12/07 12:21:26;;;;;;;0.00;0.00;;;7.90;99.90;;;;;;5116807;27;20043;-79
2021/12/07 12:24:06;;;;;;;0.00;0.00;;;7.80;99.90;;;;;;5100003;28;20043;-79
2021/12/07 12:26:34;;;;;;;0.10;0.10;;;7.70;99.90;;;;;;5099921;28;20054;-79
2021/12/07 12:29:00;;;;;;;0.00;0.00;;;7.70;99.90;;;;;;5117396;28;20439;-79
2021/12/07 12:31:54;;;;;;;0.75;0.35;;;7.80;99.90;;;;;;5099923;28;20050;-79
2021/12/07 12:34:23;;;;;;;0.00;0.00;;;7.70;99.90;;;;;;5131201;28;20142;-79
2021/12/07 12:37:04;;;;;;;0.00;0.00;;;7.70;99.90;;;;;;5116854;28;20043;-79
2021/12/07 12:39:50;;;;;;;0.00;0.00;;;7.60;99.90;;;;;;5152328;27;20046;-79
2021/12/07 12:42:46;;;;;;;0.70;0.00;;;7.40;99.90;;;;;;5100239;28;20047;-79
2021/12/07 12:45:22;;;;;;;0.00;0.00;;;7.40;99.90;;;;;;5100849;28;20047;-79
2021/12/07 12:48:06;;;;;;;0.65;0.65;;;7.30;99.90;;;;;;5100519;28;20099;-79
2021/12/07 12:50:43;;;;;;;0.05;0.05;;;7.30;99.90;;;;;;5117314;28;20133;-79
2021/12/07 12:53:15;;;;;;;0.00;0.00;;;7.30;99.90;;;;;;5151632;27;20050;-79
2021/12/07 12:55:47;;;;;;;0.00;0.00;;;7.20;99.90;;;;;;5117416;28;20500;-77
2021/12/07 12:58:21;;;;;;;0.00;0.00;;;7.20;99.90;;;;;;5116749;28;20494;-80
2021/12/07 13:00:58;;;;;;;1.92;0.30;;;7.00;99.90;;;;;;5116968;28;20091;-77
2021/12/07 13:03:24;;;;;;;0.00;0.00;;;6.90;99.90;;;;;;5116558;28;20046;-78
2021/12/07 13:06:01;;;;;;;0.00;0.00;;;6.70;99.90;;;;;;5116796;28;20039;-78
2021/12/07 13:08:27;;;;;;;0.00;0.00;;;6.60;99.90;;;;;;5116973;28;20421;-79
2021/12/07 13:11:02;;;;;;;0.00;0.00;;;6.60;99.90;;;;;;5116970;28;20047;-78
2021/12/07 13:13:34;;;;;;;2.63;0.75;;;6.50;99.90;;;;;;5115540;28;20052;-79
2021/12/07 13:16:13;;;;;;;3.20;0.10;;;6.40;99.90;;;;;;5116270;28;20039;-80
2021/12/07 13:18:43;;;;;;;0.00;0.00;;;6.30;99.90;;;;;;5099344;28;20062;-79
2021/12/07 13:21:29;;;;;;;0.88;0.88;;;6.40;99.90;;;;;;5115966;28;20139;-78
2021/12/07 13:24:00;;;;;;;0.20;0.20;;;6.30;99.90;;;;;;5102828;27;20050;-78
2021/12/07 13:26:25;;;;;;;0.00;0.00;;;6.30;99.90;;;;;;5102982;27;20058;-78
2021/12/07 13:29:06;;;;;;;8.27;0.65;;;6.20;99.90;;;;;;5103330;27;20478;-78
2021/12/07 13:31:38;;;;;;;0.00;0.00;;;6.20;99.90;;;;;;5120657;27;20047;-78
2021/12/07 13:34:04;;;;;;;0.00;0.00;;;6.20;99.90;;;;;;5103212;27;20051;-78
2021/12/07 13:36:45;;;;;;;0.70;0.15;;;6.20;99.90;;;;;;5119741;27;20043;-78
2021/12/07 13:39:13;;;;;;;0.00;0.00;;;6.20;99.90;;;;;;5120634;27;20056;-78
2021/12/07 13:42:09;;;;;;;0.30;0.30;;;6.10;99.90;;;;;;5101873;27;20039;-78
2021/12/07 13:44:46;;;;;;;0.00;0.00;;;6.10;99.90;;;;;;5102057;27;20043;-78
2021/12/07 13:47:18;;;;;;;0.00;0.00;;;6.10;99.90;;;;;;5120450;27;20043;-79
2021/12/07 13:49:46;;;;;;;0.00;0.00;;;6.00;99.90;;;;;;5104315;27;20436;-79
2021/12/07 13:52:25;;;;;;;0.08;0.00;;;6.00;99.90;;;;;;5120230;27;20062;-79
2021/12/07 13:54:54;;;;;;;0.10;0.00;;;6.00;99.90;;;;;;5102651;27;20058;-79
2021/12/07 13:57:40;;;;;;;0.00;0.00;;;6.00;99.90;;;;;;5103339;27;20035;-79
2021/12/07 14:00:09;;;;;;;0.30;0.00;;;5.90;99.90;;;;;;5120810;27;20531;-79
2021/12/07 14:02:35;;;;;;;0.30;0.30;;;5.80;99.90;;;;;;5119718;27;20398;-79
2021/12/07 14:05:06;;;;;;;1.63;0.63;;;5.90;99.90;;;;;;5119020;27;20047;-77
2021/12/07 14:07:34;;;;;;;0.10;0.10;;;5.70;99.90;;;;;;5102364;27;20043;-77
2021/12/07 14:10:27;;;;;;;0.30;0.10;;;5.70;99.90;;;;;;5119356;27;20043;-78
2021/12/07 14:12:56;;;;;;;0.10;0.08;;;5.70;99.90;;;;;;5054698;28;20057;-78
2021/12/07 14:15:32;;;;;;;0.00;0.00;;;5.60;99.90;;;;;;5020515;28;20111;-77
2021/12/07 14:18:08;;;;;;;0.00;0.00;;;5.60;99.90;;;;;;5020756;28;20526;-77
2021/12/07 14:20:48;;;;;;;0.20;0.13;;;5.50;99.90;;;;;;5020548;28;20052;-78
2021/12/07 14:23:26;;;;;;;0.55;0.10;;;5.50;99.90;;;;;;5021606;28;20057;-78
2021/12/07 14:25:51;;;;;;;0.10;0.10;;;5.40;99.90;;;;;;5070781;28;20049;-78
2021/12/07 14:28:40;;;;;;;0.00;0.00;;;5.40;99.90;;;;;;5037401;28;20049;-78
2021/12/07 14:31:19;;;;;;;0.10;0.10;;;5.40;99.90;;;;;;5020724;28;20060;-78
2021/12/07 14:33:51;;;;;;;0.08;0.05;;;5.40;99.90;;;;;;5036628;28;20191;-78
2021/12/07 14:36:26;;;;;;;0.00;0.00;;;5.30;99.90;;;;;;5020717;28;20049;-79
2021/12/07 14:38:54;;;;;;;0.00;0.00;;;5.30;99.90;;;;;;5036430;28;20041;-78
2021/12/07 14:41:23;;;;;;;0.93;0.28;;;5.30;99.90;;;;;;5014280;28;20077;-78
2021/12/07 14:43:50;;;;;;;0.45;0.08;;;5.20;99.90;;;;;;5039520;28;20107;-78
2021/12/07 14:46:18;;;;;;;0.03;0.00;;;5.20;99.90;;;;;;5020025;28;20106;-78
2021/12/07 14:48:47;;;;;;;0.00;0.00;;;5.20;99.90;;;;;;5025053;27;20060;-78